Time;durP1;ratioP1;P1;durP2;ratioP2;P2;SDS_P1;SDS_P2;PMS_P1;PMS_P2;Temp;Humidity;BMP_temperature;BMP_pressure;BME280_temperature;BME280_humidity;BME280_pressure;Samples;Min_cycle;Max_cycle;Signal;HPM_P1;HPM_P2
2022/11/12 00:08:52;;;;;;;5.73;3.07;;;14.10;99.90;;;;;;7559757;77;26301;-65
2022/11/12 00:18:54;;;;;;;6.47;3.60;;;14.10;99.90;;;;;;7548925;78;26374;-66
2022/11/12 00:28:57;;;;;;;8.03;3.27;;;13.90;99.90;;;;;;7545826;77;26289;-65
2022/11/12 00:38:59;;;;;;;5.57;3.37;;;14.00;99.90;;;;;;7552357;78;26323;-65
2022/11/12 00:49:02;;;;;;;3.93;2.63;;;13.90;99.90;;;;;;7539042;77;26390;-66
2022/11/12 00:59:04;;;;;;;5.80;3.20;;;13.90;99.90;;;;;;7549228;77;26799;-66
2022/11/12 01:09:08;;;;;;;4.30;2.57;;;13.80;99.90;;;;;;7546837;77;26327;-65
2022/11/12 01:19:12;;;;;;;4.47;2.70;;;13.90;99.90;;;;;;7519555;77;26356;-65
2022/11/12 01:29:15;;;;;;;3.20;2.43;;;13.90;99.90;;;;;;7556134;77;26316;-66
2022/11/12 01:39:17;;;;;;;4.30;2.60;;;13.70;99.90;;;;;;7544362;77;26395;-67
2022/11/12 01:49:23;;;;;;;3.57;2.40;;;13.70;99.90;;;;;;7560443;77;26779;-66
2022/11/12 01:59:28;;;;;;;4.47;2.90;;;13.60;99.90;;;;;;7551134;77;26289;-66
2022/11/12 02:09:31;;;;;;;3.70;2.70;;;13.60;99.90;;;;;;7556233;77;26305;-66
2022/11/12 02:19:36;;;;;;;4.17;2.60;;;13.60;99.90;;;;;;7550113;78;26278;-66
2022/11/12 02:29:45;;;;;;;2.70;2.20;;;13.60;99.90;;;;;;7562312;78;26295;-66
2022/11/12 02:39:46;;;;;;;3.73;2.50;;;13.60;99.90;;;;;;7563800;77;26274;-65
2022/11/12 02:49:48;;;;;;;3.27;2.17;;;13.70;99.90;;;;;;7572360;77;26356;-68
2022/11/12 02:59:51;;;;;;;6.07;2.77;;;13.70;99.90;;;;;;7561208;78;26368;-66
2022/11/12 03:09:53;;;;;;;2.87;2.30;;;13.50;99.90;;;;;;7543120;78;26305;-65
2022/11/12 03:19:56;;;;;;;4.43;2.57;;;13.40;99.90;;;;;;7556918;77;26273;-65
2022/11/12 03:29:58;;;;;;;2.67;2.20;;;13.40;99.90;;;;;;7568208;77;26387;-66
2022/11/12 03:40:02;;;;;;;3.13;2.40;;;13.40;99.90;;;;;;7555029;78;26831;-65
2022/11/12 03:50:05;;;;;;;2.53;2.00;;;13.50;99.90;;;;;;7556828;78;26759;-65
2022/11/12 04:00:09;;;;;;;2.10;1.90;;;13.50;99.90;;;;;;7559822;78;26320;-65
2022/11/12 04:10:11;;;;;;;5.43;3.30;;;13.40;99.90;;;;;;7568467;78;26811;-65
2022/11/12 04:30:35;;;;;;;2.20;1.87;;;13.40;99.90;;;;;;7566947;78;26332;-66
2022/11/12 04:51:00;;;;;;;2.30;2.00;;;13.30;99.90;;;;;;7547442;77;26294;-66
2022/11/12 05:01:03;;;;;;;2.93;2.20;;;13.30;99.90;;;;;;7554599;77;26952;-66
2022/11/12 05:11:05;;;;;;;2.70;2.20;;;13.30;99.90;;;;;;7517933;77;26300;-66
2022/11/12 05:31:28;;;;;;;1.70;1.60;;;13.10;99.90;;;;;;7543213;77;26320;-66
2022/11/12 05:41:31;;;;;;;2.10;1.60;;;13.10;99.90;;;;;;7535762;77;26375;-67
2022/11/12 05:51:33;;;;;;;2.37;1.53;;;13.00;99.90;;;;;;7526256;77;26344;-66
2022/11/12 06:01:42;;;;;;;2.40;1.40;;;13.00;99.90;;;;;;7529506;77;26394;-66
2022/11/12 06:11:41;;;;;;;1.60;1.50;;;13.10;99.90;;;;;;7513529;77;26411;-67
2022/11/12 06:21:43;;;;;;;1.87;1.57;;;12.90;99.90;;;;;;7511867;77;26351;-67
2022/11/12 06:31:46;;;;;;;1.53;1.40;;;13.00;99.90;;;;;;7522449;77;26311;-66
2022/11/12 06:41:49;;;;;;;0.90;0.90;;;12.90;99.90;;;;;;7531488;77;26297;-66
2022/11/12 06:51:52;;;;;;;1.47;1.37;;;12.80;99.90;;;;;;7532963;77;26295;-66
2022/11/12 07:01:54;;;;;;;2.80;1.70;;;12.90;99.90;;;;;;7539508;78;26270;-67
2022/11/12 07:11:57;;;;;;;1.43;1.33;;;12.90;99.90;;;;;;7516121;77;26802;-67
2022/11/12 07:21:59;;;;;;;7.23;3.60;;;13.00;99.90;;;;;;7530901;77;26336;-66
2022/11/12 07:32:02;;;;;;;3.10;1.73;;;13.00;99.90;;;;;;7539493;77;26396;-66
2022/11/12 07:42:04;;;;;;;2.30;1.90;;;13.00;99.90;;;;;;7517064;77;26403;-65
2022/11/12 07:52:07;;;;;;;2.10;1.60;;;12.80;99.90;;;;;;7529864;77;26349;-65
2022/11/12 08:02:10;;;;;;;2.33;1.63;;;13.00;99.90;;;;;;7530883;77;26355;-66
2022/11/12 08:12:12;;;;;;;2.67;1.87;;;13.00;99.90;;;;;;7517324;77;26358;-66
2022/11/12 08:22:15;;;;;;;2.57;2.10;;;12.80;99.90;;;;;;7519361;77;26802;-66
2022/11/12 08:32:17;;;;;;;2.13;1.57;;;13.00;99.90;;;;;;7529442;77;26292;-66
2022/11/12 08:42:20;;;;;;;4.07;1.80;;;13.00;99.90;;;;;;7549627;77;26307;-66
2022/11/12 08:52:22;;;;;;;2.87;1.83;;;12.90;99.90;;;;;;7529247;77;26897;-65
2022/11/12 09:02:25;;;;;;;2.00;1.73;;;13.10;99.90;;;;;;7549001;77;26276;-64
2022/11/12 09:12:28;;;;;;;1.90;1.53;;;13.10;99.90;;;;;;7540322;77;26280;-64
2022/11/12 09:22:32;;;;;;;2.20;1.70;;;13.20;99.90;;;;;;7548285;77;26371;-65
2022/11/12 09:32:34;;;;;;;1.83;1.73;;;13.20;99.90;;;;;;7531024;77;27153;-64
2022/11/12 09:42:37;;;;;;;2.03;1.80;;;13.20;99.90;;;;;;7532463;77;26385;-65
2022/11/12 09:52:42;;;;;;;2.80;2.03;;;13.10;99.90;;;;;;7544030;77;26329;-64
2022/11/12 10:02:57;;;;;;;2.87;2.40;;;13.20;99.90;;;;;;7535112;77;26947;-64
2022/11/12 10:13:14;;;;;;;2.17;1.83;;;13.30;99.90;;;;;;7522828;77;26343;-65
2022/11/12 10:23:25;;;;;;;1.80;1.70;;;13.40;99.90;;;;;;7533113;77;26864;-65
2022/11/12 10:33:32;;;;;;;2.10;1.90;;;13.40;99.90;;;;;;7545453;77;26327;-64
2022/11/12 10:43:34;;;;;;;2.97;1.70;;;13.40;99.90;;;;;;7532121;77;26281;-64
2022/11/12 10:53:39;;;;;;;2.00;1.63;;;13.40;99.90;;;;;;7517305;77;26346;-64
2022/11/12 11:03:53;;;;;;;3.57;1.87;;;13.50;99.90;;;;;;7540455;77;26347;-65
2022/11/12 11:13:59;;;;;;;4.70;1.80;;;13.60;99.90;;;;;;7512231;77;26302;-57
2022/11/12 11:24:22;;;;;;;2.03;1.70;;;13.50;99.90;;;;;;7510016;77;26359;-55
2022/11/12 11:34:55;;;;;;;3.97;1.87;;;13.60;99.90;;;;;;7508666;77;26350;-57
2022/11/12 11:45:09;;;;;;;2.90;1.60;;;13.70;99.90;;;;;;7534001;77;26810;-58
2022/11/12 11:55:48;;;;;;;2.67;2.20;;;13.60;99.90;;;;;;7560432;77;26383;-57
2022/11/12 12:06:10;;;;;;;2.63;1.90;;;13.60;99.90;;;;;;7554233;77;26264;-57
2022/11/12 12:16:24;;;;;;;5.20;2.10;;;13.80;99.90;;;;;;7568142;78;26301;-57
2022/11/12 12:26:46;;;;;;;2.60;1.70;;;13.70;99.90;;;;;;7548406;77;26331;-56
2022/11/12 12:36:52;;;;;;;2.80;2.07;;;13.80;99.90;;;;;;7561773;77;26853;-57
2022/11/12 12:46:57;;;;;;;3.30;2.40;;;13.90;99.90;;;;;;7547325;77;26339;-57
2022/11/12 12:56:59;;;;;;;2.17;1.97;;;13.90;99.90;;;;;;7552418;78;26838;-57
2022/11/12 13:07:02;;;;;;;2.83;2.30;;;14.00;99.90;;;;;;7548303;77;26877;-57
2022/11/12 13:17:10;;;;;;;2.70;2.20;;;14.00;99.90;;;;;;7560383;78;26269;-57
2022/11/12 13:27:13;;;;;;;6.03;2.57;;;14.00;99.90;;;;;;7544401;78;26301;-58
2022/11/12 13:37:23;;;;;;;2.97;2.37;;;14.00;99.90;;;;;;7569883;78;26312;-57
2022/11/12 13:47:28;;;;;;;4.17;2.47;;;14.10;99.90;;;;;;7563191;78;26342;-57
2022/11/12 13:57:31;;;;;;;4.57;1.97;;;14.10;99.90;;;;;;7559352;78;26309;-57
2022/11/12 14:08:08;;;;;;;3.97;2.53;;;14.10;99.90;;;;;;7564714;77;26362;-57
2022/11/12 14:18:29;;;;;;;2.90;2.30;;;14.00;99.90;;;;;;7566434;78;26276;-58
2022/11/12 14:28:34;;;;;;;4.07;2.90;;;14.10;99.90;;;;;;7570404;77;26328;-57
2022/11/12 14:38:48;;;;;;;5.00;2.70;;;14.00;99.90;;;;;;7572504;77;26343;-59
2022/11/12 14:48:54;;;;;;;3.63;2.90;;;14.10;99.90;;;;;;7556250;77;26276;-56
2022/11/12 14:58:57;;;;;;;4.60;2.63;;;14.10;99.90;;;;;;7549465;77;26841;-57
2022/11/12 15:08:59;;;;;;;3.77;2.57;;;13.90;99.90;;;;;;7559720;77;27100;-56
2022/11/12 15:19:17;;;;;;;3.27;2.60;;;13.90;99.90;;;;;;7560511;77;26293;-57
2022/11/12 15:29:35;;;;;;;3.87;2.53;;;14.00;99.90;;;;;;7549560;77;26372;-57
2022/11/12 15:39:44;;;;;;;3.83;2.13;;;14.00;99.90;;;;;;7553921;77;26355;-57
2022/11/12 15:49:49;;;;;;;3.20;2.07;;;14.00;99.90;;;;;;7549562;77;26799;-59
2022/11/12 16:00:07;;;;;;;5.73;3.00;;;13.80;99.90;;;;;;7570693;77;26849;-60
2022/11/12 16:10:17;;;;;;;4.83;2.73;;;13.80;99.90;;;;;;7562617;77;26360;-54
2022/11/12 16:20:23;;;;;;;3.40;2.70;;;13.80;99.90;;;;;;7569998;77;26340;-58
2022/11/12 16:30:28;;;;;;;4.97;3.70;;;14.00;99.90;;;;;;7531698;77;26979;-57
2022/11/12 16:40:31;;;;;;;3.87;2.80;;;13.80;99.90;;;;;;7518995;77;26813;-59
2022/11/12 16:50:34;;;;;;;4.00;3.30;;;13.80;99.90;;;;;;7515544;77;27028;-58
2022/11/12 17:00:37;;;;;;;3.60;3.00;;;13.80;99.90;;;;;;7530182;77;26321;-60
2022/11/12 17:10:40;;;;;;;3.17;2.87;;;13.80;99.90;;;;;;7555738;77;26351;-58
2022/11/12 17:20:42;;;;;;;3.60;2.60;;;13.60;99.90;;;;;;7529297;77;26327;-58
2022/11/12 17:30:45;;;;;;;2.87;2.43;;;13.70;99.90;;;;;;7534330;77;26261;-58
2022/11/12 17:40:47;;;;;;;3.97;2.53;;;13.60;99.90;;;;;;7515816;77;26323;-58
2022/11/12 17:50:50;;;;;;;2.30;2.10;;;13.70;99.90;;;;;;7533242;77;26288;-58
2022/11/12 18:00:53;;;;;;;3.07;2.23;;;13.70;99.90;;;;;;7547994;78;26297;-60
2022/11/12 18:10:55;;;;;;;2.60;2.27;;;13.60;99.90;;;;;;7491734;77;26347;-60
2022/11/12 18:20:58;;;;;;;3.03;2.43;;;13.60;99.90;;;;;;7550500;77;26394;-60
2022/11/12 18:31:02;;;;;;;3.57;2.60;;;13.70;99.90;;;;;;7552100;77;26360;-60
2022/11/12 18:41:10;;;;;;;3.13;2.67;;;13.60;99.90;;;;;;7541798;77;26780;-60
2022/11/12 18:51:15;;;;;;;3.17;2.67;;;13.50;99.90;;;;;;7525856;77;26347;-59
2022/11/12 19:01:20;;;;;;;7.53;4.33;;;13.70;99.90;;;;;;7526644;77;26815;-58
2022/11/12 19:11:22;;;;;;;3.70;2.77;;;13.60;99.90;;;;;;7554127;77;26265;-56
2022/11/12 19:21:26;;;;;;;4.23;3.13;;;13.60;99.90;;;;;;7546546;77;26840;-59
2022/11/12 19:31:29;;;;;;;3.40;2.57;;;13.40;99.90;;;;;;7537154;77;26824;-59
2022/11/12 19:41:32;;;;;;;3.07;2.53;;;13.40;99.90;;;;;;7531894;77;26274;-59
2022/11/12 19:51:34;;;;;;;6.20;3.00;;;13.50;99.90;;;;;;7553121;77;26904;-59
2022/11/12 20:01:37;;;;;;;7.60;3.30;;;13.50;99.90;;;;;;7506252;77;26303;-58
2022/11/12 20:11:39;;;;;;;3.70;2.67;;;13.40;99.90;;;;;;7534934;77;26283;-59
2022/11/12 20:21:42;;;;;;;12.93;4.57;;;13.50;99.90;;;;;;7530085;77;26818;-60
2022/11/12 20:31:44;;;;;;;9.80;3.10;;;13.50;99.90;;;;;;7538041;77;26281;-60
2022/11/12 20:41:51;;;;;;;12.47;4.03;;;13.40;99.90;;;;;;7532334;77;26356;-59
2022/11/12 20:51:51;;;;;;;11.90;3.93;;;13.50;99.90;;;;;;7562089;77;26336;-58
2022/11/12 21:01:58;;;;;;;11.37;3.23;;;13.40;99.90;;;;;;7540058;77;26283;-58
2022/11/12 21:11:58;;;;;;;6.33;3.23;;;13.40;99.90;;;;;;7526687;77;26294;-60
2022/11/12 21:22:01;;;;;;;10.37;3.57;;;13.50;99.90;;;;;;7532185;77;26351;-61
2022/11/12 21:32:03;;;;;;;4.80;2.83;;;13.50;99.90;;;;;;7535578;77;26336;-61
2022/11/12 21:42:06;;;;;;;5.50;3.40;;;13.30;99.90;;;;;;7530247;77;26312;-60
2022/11/12 21:52:11;;;;;;;5.93;3.53;;;13.40;99.90;;;;;;7517005;77;26355;-60
2022/11/12 22:02:13;;;;;;;5.00;2.90;;;13.20;99.90;;;;;;7514359;77;26270;-60
2022/11/12 22:12:15;;;;;;;5.80;3.23;;;13.20;99.90;;;;;;7505067;77;26296;-60
2022/11/12 22:22:18;;;;;;;5.23;2.70;;;13.40;99.90;;;;;;7508853;78;26315;-60
2022/11/12 22:32:20;;;;;;;3.37;2.77;;;13.40;99.90;;;;;;7531842;77;26290;-59
2022/11/12 22:42:23;;;;;;;3.93;2.53;;;13.30;99.90;;;;;;7516927;77;26343;-59
2022/11/12 22:52:25;;;;;;;3.33;2.57;;;13.30;99.90;;;;;;7527656;77;26970;-58
2022/11/12 23:02:28;;;;;;;6.83;3.50;;;13.30;99.90;;;;;;7540272;77;26421;-61
2022/11/12 23:12:30;;;;;;;3.40;2.80;;;13.30;99.90;;;;;;7540885;77;26367;-58
2022/11/12 23:22:33;;;;;;;4.37;3.00;;;13.40;99.90;;;;;;7540372;78;26892;-58
2022/11/12 23:32:35;;;;;;;4.77;3.30;;;13.20;99.90;;;;;;7558739;78;26359;-57
2022/11/12 23:42:38;;;;;;;4.10;2.97;;;13.30;99.90;;;;;;7529692;77;27318;-59
2022/11/12 23:52:40;;;;;;;5.77;2.60;;;13.30;99.90;;;;;;7523298;77;26367;-59
